SASO2: Little River At Sasakwa, OK

Data processed at Sun Apr 30 2017 22:33


All information presented herein is the property of the government of the United States of America and may be revised or deleted at any time without prior notice.
Dissemination of this information without the expressed written consent of the Public Affairs Office, Tulsa District U.S. Army Corps of Engineers is strictly prohibited.
These data are gathered electronically and, as presented, have not undergone any form of quality control. These data are not guaranteed to be valid or correct.
Go to home page.
Go to station list.
Go to station map.

Upstream stations:

Downstream station:
Previous Day
Next Day
Current Day
    
SHEF ID:       SASO2     Little River near Sasakwa, OK
STATION TYPE:  

                STAGE  RIV-FLOW  BAT-LOAD
                   ft       cfs      volt
              Ccp-Rev   Ccp-Rev   Ccp-Rev
(US/Central)
04/30 00:00      5.71       461     12.49
04/30 01:00      5.75       472     12.49
04/30 02:00      5.78       480     12.41
04/30 03:00      5.76       474     12.41
04/30 04:00      5.73       467     12.41
04/30 05:00      5.71       461     12.41
04/30 06:00      5.73       467     12.41
04/30 07:00      5.84       496     12.41
04/30 08:00      6.35       642     12.41
04/30 09:00      7.03       861     12.49
04/30 10:00      7.51      1033     12.73
04/30 11:00      7.78      1136     12.89
04/30 12:00      7.91      1184     13.13
04/30 13:00      8.03      1232     13.29
04/30 14:00      8.14      1277     13.68
04/30 15:00      8.27      1332     13.68
04/30 16:00      8.40      1387     13.92
04/30 17:00      8.48      1422     13.68
04/30 18:00      8.56      1457     14.00
04/30 19:00      8.56      1457     13.84
04/30 20:00      8.55      1453     13.44
04/30 21:00      8.49      1426     13.05
04/30 22:00      8.41      1392     12.65
04/30 23:00      ----      ----      ----